sensor_id;sensor_type;location;lat;lon;timestamp;P1;durP1;ratioP1;P2;durP2;ratioP2
13743;SDS011;6943;52.368;9.966;2023-02-28T00:00:47;5.37;;;4.77;;
13743;SDS011;6943;52.368;9.966;2023-02-28T00:03:12;6.93;;;4.90;;
13743;SDS011;6943;52.368;9.966;2023-02-28T00:05:38;9.33;;;4.83;;
13743;SDS011;6943;52.368;9.966;2023-02-28T00:08:04;6.37;;;5.17;;
13743;SDS011;6943;52.368;9.966;2023-02-28T00:10:30;7.23;;;4.70;;
13743;SDS011;6943;52.368;9.966;2023-02-28T00:12:59;5.50;;;4.70;;
13743;SDS011;6943;52.368;9.966;2023-02-28T00:15:26;6.97;;;4.93;;
13743;SDS011;6943;52.368;9.966;2023-02-28T00:17:52;7.40;;;4.97;;
13743;SDS011;6943;52.368;9.966;2023-02-28T00:20:18;7.27;;;5.33;;
13743;SDS011;6943;52.368;9.966;2023-02-28T00:22:45;7.40;;;5.17;;
13743;SDS011;6943;52.368;9.966;2023-02-28T00:25:18;7.23;;;5.10;;
13743;SDS011;6943;52.368;9.966;2023-02-28T00:27:45;6.40;;;4.97;;
13743;SDS011;6943;52.368;9.966;2023-02-28T00:30:13;6.37;;;5.00;;
13743;SDS011;6943;52.368;9.966;2023-02-28T00:32:40;7.70;;;4.67;;
13743;SDS011;6943;52.368;9.966;2023-02-28T00:35:06;8.03;;;5.33;;
13743;SDS011;6943;52.368;9.966;2023-02-28T00:37:33;8.40;;;5.37;;
13743;SDS011;6943;52.368;9.966;2023-02-28T00:39:59;4.90;;;4.40;;
13743;SDS011;6943;52.368;9.966;2023-02-28T00:42:24;6.73;;;5.07;;
13743;SDS011;6943;52.368;9.966;2023-02-28T00:44:50;6.90;;;5.00;;
13743;SDS011;6943;52.368;9.966;2023-02-28T00:47:16;7.37;;;4.67;;
13743;SDS011;6943;52.368;9.966;2023-02-28T00:49:41;6.43;;;4.70;;
13743;SDS011;6943;52.368;9.966;2023-02-28T00:52:07;7.57;;;5.30;;
13743;SDS011;6943;52.368;9.966;2023-02-28T00:54:33;6.53;;;5.60;;
13743;SDS011;6943;52.368;9.966;2023-02-28T00:56:58;7.33;;;5.43;;
13743;SDS011;6943;52.368;9.966;2023-02-28T00:59:24;9.47;;;5.73;;
13743;SDS011;6943;52.368;9.966;2023-02-28T01:01:50;6.50;;;5.40;;
13743;SDS011;6943;52.368;9.966;2023-02-28T01:04:15;8.57;;;6.20;;
13743;SDS011;6943;52.368;9.966;2023-02-28T01:06:41;8.13;;;5.63;;
13743;SDS011;6943;52.368;9.966;2023-02-28T01:09:07;6.30;;;5.03;;
13743;SDS011;6943;52.368;9.966;2023-02-28T01:11:34;10.73;;;5.57;;
13743;SDS011;6943;52.368;9.966;2023-02-28T01:14:00;6.90;;;5.20;;
13743;SDS011;6943;52.368;9.966;2023-02-28T01:16:26;5.43;;;4.57;;
13743;SDS011;6943;52.368;9.966;2023-02-28T01:18:52;6.60;;;4.87;;
13743;SDS011;6943;52.368;9.966;2023-02-28T01:21:18;8.87;;;5.63;;
13743;SDS011;6943;52.368;9.966;2023-02-28T01:23:45;8.27;;;5.57;;
13743;SDS011;6943;52.368;9.966;2023-02-28T01:26:12;7.30;;;5.33;;
13743;SDS011;6943;52.368;9.966;2023-02-28T01:28:42;10.60;;;6.37;;
13743;SDS011;6943;52.368;9.966;2023-02-28T01:31:08;5.30;;;4.40;;
13743;SDS011;6943;52.368;9.966;2023-02-28T01:33:34;6.23;;;5.13;;
13743;SDS011;6943;52.368;9.966;2023-02-28T01:36:01;10.27;;;6.23;;
13743;SDS011;6943;52.368;9.966;2023-02-28T01:38:28;7.10;;;5.80;;
13743;SDS011;6943;52.368;9.966;2023-02-28T01:40:54;8.13;;;5.70;;
13743;SDS011;6943;52.368;9.966;2023-02-28T01:43:29;8.77;;;5.47;;
13743;SDS011;6943;52.368;9.966;2023-02-28T01:45:57;10.20;;;6.20;;
13743;SDS011;6943;52.368;9.966;2023-02-28T01:48:27;10.17;;;6.23;;
13743;SDS011;6943;52.368;9.966;2023-02-28T01:50:58;7.30;;;5.83;;
13743;SDS011;6943;52.368;9.966;2023-02-28T01:53:34;9.10;;;5.47;;
13743;SDS011;6943;52.368;9.966;2023-02-28T01:56:04;7.97;;;5.80;;
13743;SDS011;6943;52.368;9.966;2023-02-28T01:58:31;9.37;;;6.30;;
13743;SDS011;6943;52.368;9.966;2023-02-28T02:00:58;7.47;;;5.30;;
13743;SDS011;6943;52.368;9.966;2023-02-28T02:03:23;8.67;;;6.00;;
13743;SDS011;6943;52.368;9.966;2023-02-28T02:05:49;9.37;;;6.10;;
13743;SDS011;6943;52.368;9.966;2023-02-28T02:08:23;7.93;;;5.73;;
13743;SDS011;6943;52.368;9.966;2023-02-28T02:10:51;8.37;;;5.27;;
13743;SDS011;6943;52.368;9.966;2023-02-28T02:16:23;8.63;;;5.20;;
13743;SDS011;6943;52.368;9.966;2023-02-28T02:19:14;5.80;;;4.90;;
13743;SDS011;6943;52.368;9.966;2023-02-28T02:22:15;7.60;;;5.20;;
13743;SDS011;6943;52.368;9.966;2023-02-28T02:28:04;6.13;;;4.87;;
13743;SDS011;6943;52.368;9.966;2023-02-28T02:36:27;8.37;;;4.70;;
13743;SDS011;6943;52.368;9.966;2023-02-28T02:41:39;5.97;;;4.77;;
13743;SDS011;6943;52.368;9.966;2023-02-28T02:44:13;7.73;;;4.63;;
13743;SDS011;6943;52.368;9.966;2023-02-28T02:47:06;7.13;;;5.07;;
13743;SDS011;6943;52.368;9.966;2023-02-28T02:49:36;6.93;;;4.70;;
13743;SDS011;6943;52.368;9.966;2023-02-28T02:52:06;6.83;;;4.63;;
13743;SDS011;6943;52.368;9.966;2023-02-28T02:54:35;6.20;;;4.43;;
13743;SDS011;6943;52.368;9.966;2023-02-28T02:57:07;8.27;;;5.13;;
13743;SDS011;6943;52.368;9.966;2023-02-28T02:59:38;5.00;;;4.50;;
13743;SDS011;6943;52.368;9.966;2023-02-28T03:02:06;6.47;;;4.87;;
13743;SDS011;6943;52.368;9.966;2023-02-28T03:04:38;6.83;;;4.20;;
13743;SDS011;6943;52.368;9.966;2023-02-28T03:07:07;7.10;;;4.53;;
13743;SDS011;6943;52.368;9.966;2023-02-28T03:09:33;6.23;;;4.53;;
13743;SDS011;6943;52.368;9.966;2023-02-28T03:12:00;8.20;;;5.00;;
13743;SDS011;6943;52.368;9.966;2023-02-28T03:19:55;7.97;;;4.67;;
13743;SDS011;6943;52.368;9.966;2023-02-28T03:25:20;8.40;;;4.80;;
13743;SDS011;6943;52.368;9.966;2023-02-28T03:33:17;6.63;;;5.33;;
13743;SDS011;6943;52.368;9.966;2023-02-28T03:35:56;6.77;;;5.00;;
13743;SDS011;6943;52.368;9.966;2023-02-28T03:38:35;5.20;;;4.60;;
13743;SDS011;6943;52.368;9.966;2023-02-28T03:41:10;8.07;;;4.60;;
13743;SDS011;6943;52.368;9.966;2023-02-28T03:43:44;6.60;;;5.53;;
13743;SDS011;6943;52.368;9.966;2023-02-28T03:46:16;5.37;;;4.50;;
13743;SDS011;6943;52.368;9.966;2023-02-28T03:48:49;6.60;;;5.10;;
13743;SDS011;6943;52.368;9.966;2023-02-28T03:51:21;6.13;;;4.83;;
13743;SDS011;6943;52.368;9.966;2023-02-28T03:53:59;6.63;;;5.13;;
13743;SDS011;6943;52.368;9.966;2023-02-28T03:56:32;5.77;;;4.53;;
13743;SDS011;6943;52.368;9.966;2023-02-28T03:59:22;6.30;;;4.67;;
13743;SDS011;6943;52.368;9.966;2023-02-28T04:01:53;5.80;;;4.80;;
13743;SDS011;6943;52.368;9.966;2023-02-28T04:04:19;5.83;;;4.77;;
13743;SDS011;6943;52.368;9.966;2023-02-28T04:06:45;7.20;;;4.37;;
13743;SDS011;6943;52.368;9.966;2023-02-28T04:09:15;6.13;;;4.93;;
13743;SDS011;6943;52.368;9.966;2023-02-28T04:11:45;7.47;;;4.93;;
13743;SDS011;6943;52.368;9.966;2023-02-28T04:14:16;4.87;;;4.40;;
13743;SDS011;6943;52.368;9.966;2023-02-28T04:16:42;7.27;;;5.07;;
13743;SDS011;6943;52.368;9.966;2023-02-28T04:19:09;5.87;;;5.07;;
13743;SDS011;6943;52.368;9.966;2023-02-28T04:21:46;6.43;;;4.37;;
13743;SDS011;6943;52.368;9.966;2023-02-28T04:24:14;6.27;;;5.03;;
13743;SDS011;6943;52.368;9.966;2023-02-28T04:26:46;7.17;;;5.20;;
13743;SDS011;6943;52.368;9.966;2023-02-28T04:29:18;5.90;;;4.97;;
13743;SDS011;6943;52.368;9.966;2023-02-28T04:31:45;5.70;;;4.50;;
13743;SDS011;6943;52.368;9.966;2023-02-28T04:34:11;7.23;;;4.80;;
13743;SDS011;6943;52.368;9.966;2023-02-28T04:36:36;6.80;;;5.13;;
13743;SDS011;6943;52.368;9.966;2023-02-28T04:39:02;6.40;;;5.37;;
13743;SDS011;6943;52.368;9.966;2023-02-28T04:41:29;6.90;;;5.33;;
13743;SDS011;6943;52.368;9.966;2023-02-28T04:43:54;8.30;;;5.57;;
13743;SDS011;6943;52.368;9.966;2023-02-28T04:46:21;7.53;;;5.27;;
13743;SDS011;6943;52.368;9.966;2023-02-28T04:48:47;9.00;;;5.50;;
13743;SDS011;6943;52.368;9.966;2023-02-28T04:51:13;9.10;;;5.90;;
13743;SDS011;6943;52.368;9.966;2023-02-28T04:53:40;8.43;;;5.27;;
13743;SDS011;6943;52.368;9.966;2023-02-28T04:56:06;6.57;;;5.30;;
13743;SDS011;6943;52.368;9.966;2023-02-28T04:58:33;8.00;;;5.50;;
13743;SDS011;6943;52.368;9.966;2023-02-28T05:01:19;7.50;;;6.00;;
13743;SDS011;6943;52.368;9.966;2023-02-28T05:03:49;8.97;;;5.97;;
13743;SDS011;6943;52.368;9.966;2023-02-28T05:06:15;6.77;;;5.07;;
13743;SDS011;6943;52.368;9.966;2023-02-28T05:08:42;6.43;;;5.17;;
13743;SDS011;6943;52.368;9.966;2023-02-28T05:13:47;6.10;;;4.43;;
13743;SDS011;6943;52.368;9.966;2023-02-28T05:16:13;6.63;;;4.77;;
13743;SDS011;6943;52.368;9.966;2023-02-28T05:18:39;5.57;;;4.43;;
13743;SDS011;6943;52.368;9.966;2023-02-28T05:21:05;6.03;;;4.73;;
13743;SDS011;6943;52.368;9.966;2023-02-28T05:23:31;6.63;;;4.60;;
13743;SDS011;6943;52.368;9.966;2023-02-28T05:25:57;6.30;;;4.43;;
13743;SDS011;6943;52.368;9.966;2023-02-28T05:28:22;5.53;;;4.60;;
13743;SDS011;6943;52.368;9.966;2023-02-28T05:30:48;5.93;;;4.50;;
13743;SDS011;6943;52.368;9.966;2023-02-28T05:33:14;5.57;;;4.67;;
13743;SDS011;6943;52.368;9.966;2023-02-28T05:35:40;8.13;;;4.70;;
13743;SDS011;6943;52.368;9.966;2023-02-28T05:38:07;8.00;;;5.13;;
13743;SDS011;6943;52.368;9.966;2023-02-28T05:40:33;6.53;;;4.80;;
13743;SDS011;6943;52.368;9.966;2023-02-28T05:42:59;6.17;;;4.47;;
13743;SDS011;6943;52.368;9.966;2023-02-28T05:45:24;5.87;;;3.87;;
13743;SDS011;6943;52.368;9.966;2023-02-28T05:47:53;5.90;;;4.77;;
13743;SDS011;6943;52.368;9.966;2023-02-28T05:50:19;4.80;;;4.30;;
13743;SDS011;6943;52.368;9.966;2023-02-28T05:52:48;6.37;;;4.23;;
13743;SDS011;6943;52.368;9.966;2023-02-28T05:55:17;5.37;;;4.30;;
13743;SDS011;6943;52.368;9.966;2023-02-28T05:57:43;5.70;;;3.90;;
13743;SDS011;6943;52.368;9.966;2023-02-28T06:00:09;5.57;;;4.37;;
13743;SDS011;6943;52.368;9.966;2023-02-28T06:02:35;4.93;;;4.43;;
13743;SDS011;6943;52.368;9.966;2023-02-28T06:05:01;7.23;;;5.00;;
13743;SDS011;6943;52.368;9.966;2023-02-28T06:07:26;6.50;;;4.27;;
13743;SDS011;6943;52.368;9.966;2023-02-28T06:09:52;6.97;;;4.47;;
13743;SDS011;6943;52.368;9.966;2023-02-28T06:12:18;5.23;;;4.70;;
13743;SDS011;6943;52.368;9.966;2023-02-28T06:14:43;7.43;;;4.93;;
13743;SDS011;6943;52.368;9.966;2023-02-28T06:17:09;5.90;;;4.60;;
13743;SDS011;6943;52.368;9.966;2023-02-28T06:19:36;5.03;;;4.40;;
13743;SDS011;6943;52.368;9.966;2023-02-28T06:22:03;6.50;;;4.73;;
13743;SDS011;6943;52.368;9.966;2023-02-28T06:24:29;4.77;;;4.27;;
13743;SDS011;6943;52.368;9.966;2023-02-28T06:26:56;6.17;;;4.60;;
13743;SDS011;6943;52.368;9.966;2023-02-28T06:29:23;7.20;;;4.83;;
13743;SDS011;6943;52.368;9.966;2023-02-28T06:31:49;6.30;;;4.77;;
13743;SDS011;6943;52.368;9.966;2023-02-28T06:34:15;5.80;;;5.10;;
13743;SDS011;6943;52.368;9.966;2023-02-28T06:36:42;11.27;;;6.10;;
13743;SDS011;6943;52.368;9.966;2023-02-28T06:39:08;9.53;;;6.40;;
13743;SDS011;6943;52.368;9.966;2023-02-28T06:41:34;9.03;;;5.87;;
13743;SDS011;6943;52.368;9.966;2023-02-28T06:44:05;7.03;;;5.70;;
13743;SDS011;6943;52.368;9.966;2023-02-28T06:46:36;7.73;;;5.90;;
13743;SDS011;6943;52.368;9.966;2023-02-28T06:49:04;8.13;;;6.00;;
13743;SDS011;6943;52.368;9.966;2023-02-28T06:51:29;8.77;;;6.07;;
13743;SDS011;6943;52.368;9.966;2023-02-28T06:53:55;7.40;;;5.50;;
13743;SDS011;6943;52.368;9.966;2023-02-28T06:56:21;9.73;;;6.10;;
13743;SDS011;6943;52.368;9.966;2023-02-28T06:58:47;7.97;;;6.17;;
13743;SDS011;6943;52.368;9.966;2023-02-28T07:01:14;8.80;;;5.93;;
13743;SDS011;6943;52.368;9.966;2023-02-28T07:03:40;7.40;;;6.35;;
13743;SDS011;6943;52.368;9.966;2023-02-28T07:06:05;9.97;;;6.43;;
13743;SDS011;6943;52.368;9.966;2023-02-28T07:08:32;8.37;;;6.13;;
13743;SDS011;6943;52.368;9.966;2023-02-28T07:10:58;9.20;;;6.67;;
13743;SDS011;6943;52.368;9.966;2023-02-28T07:13:24;9.87;;;6.10;;
13743;SDS011;6943;52.368;9.966;2023-02-28T07:15:57;10.73;;;6.63;;
13743;SDS011;6943;52.368;9.966;2023-02-28T07:18:34;11.40;;;6.90;;
13743;SDS011;6943;52.368;9.966;2023-02-28T07:21:04;10.90;;;6.17;;
13743;SDS011;6943;52.368;9.966;2023-02-28T07:23:31;9.70;;;7.00;;
13743;SDS011;6943;52.368;9.966;2023-02-28T07:25:56;7.83;;;6.50;;
13743;SDS011;6943;52.368;9.966;2023-02-28T07:28:22;11.07;;;7.67;;
13743;SDS011;6943;52.368;9.966;2023-02-28T07:30:47;10.60;;;8.73;;
13743;SDS011;6943;52.368;9.966;2023-02-28T07:33:13;8.23;;;6.90;;
13743;SDS011;6943;52.368;9.966;2023-02-28T07:35:38;13.43;;;8.30;;
13743;SDS011;6943;52.368;9.966;2023-02-28T07:38:04;22.87;;;16.80;;
13743;SDS011;6943;52.368;9.966;2023-02-28T07:40:32;8.20;;;7.13;;
13743;SDS011;6943;52.368;9.966;2023-02-28T07:42:59;10.30;;;7.43;;
13743;SDS011;6943;52.368;9.966;2023-02-28T07:45:25;17.73;;;13.27;;
13743;SDS011;6943;52.368;9.966;2023-02-28T07:47:51;17.07;;;10.47;;
13743;SDS011;6943;52.368;9.966;2023-02-28T07:50:16;14.50;;;8.30;;
13743;SDS011;6943;52.368;9.966;2023-02-28T07:52:42;24.20;;;11.60;;
13743;SDS011;6943;52.368;9.966;2023-02-28T07:55:08;7.97;;;5.10;;
13743;SDS011;6943;52.368;9.966;2023-02-28T07:57:34;7.67;;;5.87;;
13743;SDS011;6943;52.368;9.966;2023-02-28T08:00:00;11.30;;;5.90;;
13743;SDS011;6943;52.368;9.966;2023-02-28T08:02:28;9.20;;;5.90;;
13743;SDS011;6943;52.368;9.966;2023-02-28T08:04:53;9.43;;;6.43;;
13743;SDS011;6943;52.368;9.966;2023-02-28T08:07:19;9.17;;;6.37;;
13743;SDS011;6943;52.368;9.966;2023-02-28T08:09:45;9.60;;;6.37;;
13743;SDS011;6943;52.368;9.966;2023-02-28T08:12:10;10.23;;;6.33;;
13743;SDS011;6943;52.368;9.966;2023-02-28T08:14:36;8.17;;;5.27;;
13743;SDS011;6943;52.368;9.966;2023-02-28T08:17:02;9.03;;;7.20;;
13743;SDS011;6943;52.368;9.966;2023-02-28T08:19:29;6.40;;;4.60;;
13743;SDS011;6943;52.368;9.966;2023-02-28T08:21:55;5.07;;;4.43;;
13743;SDS011;6943;52.368;9.966;2023-02-28T08:24:21;5.10;;;4.40;;
13743;SDS011;6943;52.368;9.966;2023-02-28T08:26:46;5.90;;;4.80;;
13743;SDS011;6943;52.368;9.966;2023-02-28T08:29:12;5.67;;;4.67;;
13743;SDS011;6943;52.368;9.966;2023-02-28T08:31:37;6.77;;;4.30;;
13743;SDS011;6943;52.368;9.966;2023-02-28T08:34:07;5.83;;;4.50;;
13743;SDS011;6943;52.368;9.966;2023-02-28T08:36:33;7.57;;;4.47;;
13743;SDS011;6943;52.368;9.966;2023-02-28T08:38:59;5.47;;;4.50;;
13743;SDS011;6943;52.368;9.966;2023-02-28T08:41:25;6.50;;;4.67;;
13743;SDS011;6943;52.368;9.966;2023-02-28T08:43:51;7.40;;;4.67;;
13743;SDS011;6943;52.368;9.966;2023-02-28T08:46:17;5.27;;;4.27;;
13743;SDS011;6943;52.368;9.966;2023-02-28T08:48:42;6.63;;;3.60;;
13743;SDS011;6943;52.368;9.966;2023-02-28T08:51:18;5.17;;;3.83;;
13743;SDS011;6943;52.368;9.966;2023-02-28T08:53:47;4.23;;;3.50;;
13743;SDS011;6943;52.368;9.966;2023-02-28T08:56:14;4.03;;;3.50;;
13743;SDS011;6943;52.368;9.966;2023-02-28T08:58:41;6.60;;;3.70;;
13743;SDS011;6943;52.368;9.966;2023-02-28T09:01:08;3.80;;;3.40;;
13743;SDS011;6943;52.368;9.966;2023-02-28T09:03:40;4.83;;;3.30;;
13743;SDS011;6943;52.368;9.966;2023-02-28T09:06:06;3.80;;;3.40;;
13743;SDS011;6943;52.368;9.966;2023-02-28T09:08:34;4.90;;;2.50;;
13743;SDS011;6943;52.368;9.966;2023-02-28T09:10:59;3.17;;;2.87;;
13743;SDS011;6943;52.368;9.966;2023-02-28T09:13:26;3.67;;;2.57;;
13743;SDS011;6943;52.368;9.966;2023-02-28T09:15:52;3.70;;;2.73;;
13743;SDS011;6943;52.368;9.966;2023-02-28T09:18:19;3.97;;;2.70;;
13743;SDS011;6943;52.368;9.966;2023-02-28T09:20:45;5.40;;;2.30;;
13743;SDS011;6943;52.368;9.966;2023-02-28T09:23:11;3.57;;;2.00;;
13743;SDS011;6943;52.368;9.966;2023-02-28T09:25:37;3.57;;;2.17;;
13743;SDS011;6943;52.368;9.966;2023-02-28T09:28:10;2.37;;;2.10;;
13743;SDS011;6943;52.368;9.966;2023-02-28T09:30:36;2.83;;;1.63;;
13743;SDS011;6943;52.368;9.966;2023-02-28T09:33:01;2.83;;;2.33;;
13743;SDS011;6943;52.368;9.966;2023-02-28T09:35:27;4.90;;;2.17;;
13743;SDS011;6943;52.368;9.966;2023-02-28T09:37:52;2.27;;;2.07;;
13743;SDS011;6943;52.368;9.966;2023-02-28T09:40:18;1.87;;;1.63;;
13743;SDS011;6943;52.368;9.966;2023-02-28T09:42:47;3.67;;;2.00;;
13743;SDS011;6943;52.368;9.966;2023-02-28T09:45:22;3.93;;;2.10;;
13743;SDS011;6943;52.368;9.966;2023-02-28T09:47:52;4.63;;;1.80;;
13743;SDS011;6943;52.368;9.966;2023-02-28T09:50:40;2.53;;;1.60;;
13743;SDS011;6943;52.368;9.966;2023-02-28T09:53:18;3.60;;;1.80;;
13743;SDS011;6943;52.368;9.966;2023-02-28T09:55:54;2.73;;;1.77;;
13743;SDS011;6943;52.368;9.966;2023-02-28T09:58:26;4.40;;;2.10;;
13743;SDS011;6943;52.368;9.966;2023-02-28T10:01:45;2.07;;;1.60;;
13743;SDS011;6943;52.368;9.966;2023-02-28T10:06:20;2.03;;;1.60;;
13743;SDS011;6943;52.368;9.966;2023-02-28T10:11:26;2.77;;;1.50;;
13743;SDS011;6943;52.368;9.966;2023-02-28T10:13:56;2.93;;;1.90;;
13743;SDS011;6943;52.368;9.966;2023-02-28T10:16:29;3.83;;;2.13;;
13743;SDS011;6943;52.368;9.966;2023-02-28T10:19:09;2.70;;;1.80;;
13743;SDS011;6943;52.368;9.966;2023-02-28T10:21:43;1.90;;;1.63;;
13743;SDS011;6943;52.368;9.966;2023-02-28T10:26:53;2.50;;;1.73;;
13743;SDS011;6943;52.368;9.966;2023-02-28T10:29:24;2.53;;;1.60;;
13743;SDS011;6943;52.368;9.966;2023-02-28T10:31:49;2.60;;;1.40;;
13743;SDS011;6943;52.368;9.966;2023-02-28T10:34:15;2.67;;;1.50;;
13743;SDS011;6943;52.368;9.966;2023-02-28T10:36:41;1.57;;;1.30;;
13743;SDS011;6943;52.368;9.966;2023-02-28T10:42:00;2.10;;;1.30;;
13743;SDS011;6943;52.368;9.966;2023-02-28T10:44:25;7.20;;;1.60;;
13743;SDS011;6943;52.368;9.966;2023-02-28T10:46:51;1.70;;;1.37;;
13743;SDS011;6943;52.368;9.966;2023-02-28T10:49:19;2.20;;;1.70;;
13743;SDS011;6943;52.368;9.966;2023-02-28T10:51:54;3.80;;;1.50;;
13743;SDS011;6943;52.368;9.966;2023-02-28T10:54:23;2.70;;;1.53;;
13743;SDS011;6943;52.368;9.966;2023-02-28T10:57:07;2.70;;;1.60;;
13743;SDS011;6943;52.368;9.966;2023-02-28T10:59:43;1.77;;;1.43;;
13743;SDS011;6943;52.368;9.966;2023-02-28T11:02:28;2.83;;;1.73;;
13743;SDS011;6943;52.368;9.966;2023-02-28T11:04:56;2.43;;;1.83;;
13743;SDS011;6943;52.368;9.966;2023-02-28T11:07:22;2.57;;;1.50;;
13743;SDS011;6943;52.368;9.966;2023-02-28T11:09:51;2.00;;;1.80;;
13743;SDS011;6943;52.368;9.966;2023-02-28T11:12:23;2.50;;;1.80;;
13743;SDS011;6943;52.368;9.966;2023-02-28T11:15:18;2.07;;;1.67;;
13743;SDS011;6943;52.368;9.966;2023-02-28T11:17:55;3.87;;;1.70;;
13743;SDS011;6943;52.368;9.966;2023-02-28T11:20:49;2.20;;;1.60;;
13743;SDS011;6943;52.368;9.966;2023-02-28T11:23:16;2.27;;;1.67;;
13743;SDS011;6943;52.368;9.966;2023-02-28T11:25:47;2.97;;;1.80;;
13743;SDS011;6943;52.368;9.966;2023-02-28T11:28:40;3.57;;;1.97;;
13743;SDS011;6943;52.368;9.966;2023-02-28T11:36:12;2.57;;;1.70;;
13743;SDS011;6943;52.368;9.966;2023-02-28T11:38:40;2.37;;;1.60;;
13743;SDS011;6943;52.368;9.966;2023-02-28T11:46:46;3.53;;;2.30;;
13743;SDS011;6943;52.368;9.966;2023-02-28T12:01:26;3.40;;;2.10;;
13743;SDS011;6943;52.368;9.966;2023-02-28T12:09:10;2.77;;;2.20;;
13743;SDS011;6943;52.368;9.966;2023-02-28T12:17:37;3.53;;;2.17;;
13743;SDS011;6943;52.368;9.966;2023-02-28T12:20:25;2.63;;;1.93;;
13743;SDS011;6943;52.368;9.966;2023-02-28T12:23:10;4.97;;;2.10;;
13743;SDS011;6943;52.368;9.966;2023-02-28T12:25:54;2.40;;;2.00;;
13743;SDS011;6943;52.368;9.966;2023-02-28T12:28:43;3.00;;;2.30;;
13743;SDS011;6943;52.368;9.966;2023-02-28T12:31:38;3.73;;;2.07;;
13743;SDS011;6943;52.368;9.966;2023-02-28T12:34:13;3.33;;;2.10;;
13743;SDS011;6943;52.368;9.966;2023-02-28T12:36:45;3.97;;;2.60;;
13743;SDS011;6943;52.368;9.966;2023-02-28T12:39:18;3.87;;;2.17;;
13743;SDS011;6943;52.368;9.966;2023-02-28T12:41:53;3.97;;;2.43;;
13743;SDS011;6943;52.368;9.966;2023-02-28T12:46:57;2.57;;;1.90;;
13743;SDS011;6943;52.368;9.966;2023-02-28T12:49:31;3.20;;;2.03;;
13743;SDS011;6943;52.368;9.966;2023-02-28T12:52:01;2.80;;;1.80;;
13743;SDS011;6943;52.368;9.966;2023-02-28T12:54:30;3.73;;;1.97;;
13743;SDS011;6943;52.368;9.966;2023-02-28T12:57:10;2.83;;;2.10;;
13743;SDS011;6943;52.368;9.966;2023-02-28T13:00:01;4.73;;;2.30;;
13743;SDS011;6943;52.368;9.966;2023-02-28T13:02:42;2.97;;;2.30;;
13743;SDS011;6943;52.368;9.966;2023-02-28T13:08:52;3.23;;;2.07;;
13743;SDS011;6943;52.368;9.966;2023-02-28T13:11:47;5.57;;;2.60;;
13743;SDS011;6943;52.368;9.966;2023-02-28T13:19:40;2.57;;;2.37;;
13743;SDS011;6943;52.368;9.966;2023-02-28T13:22:19;3.00;;;2.57;;
13743;SDS011;6943;52.368;9.966;2023-02-28T13:24:51;3.30;;;2.30;;
13743;SDS011;6943;52.368;9.966;2023-02-28T13:29:56;3.50;;;1.90;;
13743;SDS011;6943;52.368;9.966;2023-02-28T13:39:51;2.83;;;2.37;;
13743;SDS011;6943;52.368;9.966;2023-02-28T13:45:19;6.30;;;2.90;;
13743;SDS011;6943;52.368;9.966;2023-02-28T13:47:45;3.00;;;2.20;;
13743;SDS011;6943;52.368;9.966;2023-02-28T13:50:23;2.70;;;2.03;;
13743;SDS011;6943;52.368;9.966;2023-02-28T13:52:57;2.27;;;2.07;;
13743;SDS011;6943;52.368;9.966;2023-02-28T13:56:00;3.20;;;1.97;;
13743;SDS011;6943;52.368;9.966;2023-02-28T14:01:25;3.13;;;2.50;;
13743;SDS011;6943;52.368;9.966;2023-02-28T14:06:56;2.60;;;2.20;;
13743;SDS011;6943;52.368;9.966;2023-02-28T14:09:33;3.33;;;2.13;;
13743;SDS011;6943;52.368;9.966;2023-02-28T14:12:51;3.07;;;2.17;;
13743;SDS011;6943;52.368;9.966;2023-02-28T14:15:38;2.80;;;2.30;;
13743;SDS011;6943;52.368;9.966;2023-02-28T14:18:26;2.93;;;2.33;;
13743;SDS011;6943;52.368;9.966;2023-02-28T14:21:01;4.10;;;2.10;;
13743;SDS011;6943;52.368;9.966;2023-02-28T14:38:32;3.53;;;2.37;;
13743;SDS011;6943;52.368;9.966;2023-02-28T14:41:14;2.97;;;1.97;;
13743;SDS011;6943;52.368;9.966;2023-02-28T14:44:23;2.73;;;2.00;;
13743;SDS011;6943;52.368;9.966;2023-02-28T14:46:54;2.40;;;2.20;;
13743;SDS011;6943;52.368;9.966;2023-02-28T14:49:51;2.43;;;2.10;;
13743;SDS011;6943;52.368;9.966;2023-02-28T14:52:23;3.43;;;1.73;;
13743;SDS011;6943;52.368;9.966;2023-02-28T14:54:52;3.27;;;2.10;;
13743;SDS011;6943;52.368;9.966;2023-02-28T14:57:21;2.80;;;2.13;;
13743;SDS011;6943;52.368;9.966;2023-02-28T14:59:56;2.57;;;2.33;;
13743;SDS011;6943;52.368;9.966;2023-02-28T15:02:33;2.60;;;2.13;;
13743;SDS011;6943;52.368;9.966;2023-02-28T15:05:01;3.90;;;2.57;;
13743;SDS011;6943;52.368;9.966;2023-02-28T15:07:42;3.37;;;2.07;;
13743;SDS011;6943;52.368;9.966;2023-02-28T15:12:36;6.13;;;3.33;;
13743;SDS011;6943;52.368;9.966;2023-02-28T15:15:04;6.77;;;4.20;;
13743;SDS011;6943;52.368;9.966;2023-02-28T15:17:31;4.37;;;2.90;;
13743;SDS011;6943;52.368;9.966;2023-02-28T15:19:57;3.67;;;2.60;;
13743;SDS011;6943;52.368;9.966;2023-02-28T15:22:27;4.13;;;2.97;;
13743;SDS011;6943;52.368;9.966;2023-02-28T15:24:58;4.17;;;2.27;;
13743;SDS011;6943;52.368;9.966;2023-02-28T15:27:25;3.77;;;2.73;;
13743;SDS011;6943;52.368;9.966;2023-02-28T15:29:55;3.40;;;2.47;;
13743;SDS011;6943;52.368;9.966;2023-02-28T15:32:27;5.53;;;3.13;;
13743;SDS011;6943;52.368;9.966;2023-02-28T15:34:55;3.07;;;2.63;;
13743;SDS011;6943;52.368;9.966;2023-02-28T15:37:40;5.27;;;3.00;;
13743;SDS011;6943;52.368;9.966;2023-02-28T15:42:38;4.63;;;3.20;;
13743;SDS011;6943;52.368;9.966;2023-02-28T15:45:04;4.47;;;3.90;;
13743;SDS011;6943;52.368;9.966;2023-02-28T15:47:30;5.50;;;3.53;;
13743;SDS011;6943;52.368;9.966;2023-02-28T15:50:00;4.23;;;2.73;;
13743;SDS011;6943;52.368;9.966;2023-02-28T15:54:53;3.40;;;2.83;;
13743;SDS011;6943;52.368;9.966;2023-02-28T15:57:21;3.17;;;2.87;;
13743;SDS011;6943;52.368;9.966;2023-02-28T15:59:50;5.83;;;3.30;;
13743;SDS011;6943;52.368;9.966;2023-02-28T16:02:30;4.30;;;3.17;;
13743;SDS011;6943;52.368;9.966;2023-02-28T16:05:01;3.37;;;2.90;;
13743;SDS011;6943;52.368;9.966;2023-02-28T16:07:43;5.20;;;3.00;;
13743;SDS011;6943;52.368;9.966;2023-02-28T16:10:10;3.43;;;2.60;;
13743;SDS011;6943;52.368;9.966;2023-02-28T16:12:39;4.10;;;3.70;;
13743;SDS011;6943;52.368;9.966;2023-02-28T16:15:06;4.03;;;3.57;;
13743;SDS011;6943;52.368;9.966;2023-02-28T16:17:35;5.00;;;4.27;;
13743;SDS011;6943;52.368;9.966;2023-02-28T16:20:16;4.40;;;3.27;;
13743;SDS011;6943;52.368;9.966;2023-02-28T16:22:44;7.30;;;5.00;;
13743;SDS011;6943;52.368;9.966;2023-02-28T16:25:14;6.60;;;3.53;;
13743;SDS011;6943;52.368;9.966;2023-02-28T16:27:45;5.60;;;4.50;;
13743;SDS011;6943;52.368;9.966;2023-02-28T16:30:21;5.43;;;3.53;;
13743;SDS011;6943;52.368;9.966;2023-02-28T16:32:49;5.67;;;4.13;;
13743;SDS011;6943;52.368;9.966;2023-02-28T16:35:15;4.97;;;3.83;;
13743;SDS011;6943;52.368;9.966;2023-02-28T16:37:42;4.97;;;3.67;;
13743;SDS011;6943;52.368;9.966;2023-02-28T16:40:29;5.60;;;3.80;;
13743;SDS011;6943;52.368;9.966;2023-02-28T16:42:58;4.40;;;3.60;;
13743;SDS011;6943;52.368;9.966;2023-02-28T16:45:30;4.77;;;3.60;;
13743;SDS011;6943;52.368;9.966;2023-02-28T16:47:55;4.43;;;3.13;;
13743;SDS011;6943;52.368;9.966;2023-02-28T16:50:25;4.10;;;3.13;;
13743;SDS011;6943;52.368;9.966;2023-02-28T16:52:52;4.30;;;3.70;;
13743;SDS011;6943;52.368;9.966;2023-02-28T16:55:19;7.03;;;4.60;;
13743;SDS011;6943;52.368;9.966;2023-02-28T16:57:55;5.93;;;4.63;;
13743;SDS011;6943;52.368;9.966;2023-02-28T17:00:22;6.77;;;4.67;;
13743;SDS011;6943;52.368;9.966;2023-02-28T17:02:48;6.10;;;5.33;;
13743;SDS011;6943;52.368;9.966;2023-02-28T17:05:14;8.60;;;5.43;;
13743;SDS011;6943;52.368;9.966;2023-02-28T17:07:41;8.03;;;5.27;;
13743;SDS011;6943;52.368;9.966;2023-02-28T17:10:20;7.20;;;5.57;;
13743;SDS011;6943;52.368;9.966;2023-02-28T17:12:47;7.07;;;5.80;;
13743;SDS011;6943;52.368;9.966;2023-02-28T17:15:14;6.67;;;6.00;;
13743;SDS011;6943;52.368;9.966;2023-02-28T17:17:41;8.10;;;5.90;;
13743;SDS011;6943;52.368;9.966;2023-02-28T17:20:10;5.60;;;5.10;;
13743;SDS011;6943;52.368;9.966;2023-02-28T17:22:40;6.90;;;5.63;;
13743;SDS011;6943;52.368;9.966;2023-02-28T17:25:06;6.17;;;5.43;;
13743;SDS011;6943;52.368;9.966;2023-02-28T17:27:33;8.73;;;6.37;;